Terminal Aerodrome Forecast
Issued by NWS

Home | Current Version | Previous Version | Text Only | Print | Product List | Glossary Off
Versions: 1 2 3 4 5 6 7 8 9 10 11 12 13

000
FTUS43 KGRB 260500
TAFMTW
TAF
KMTW 260520Z 2606/2706 01009KT P6SM SCT035 BKN100
      TEMPO 2606/2608 5SM -SN BKN025
     FM261000 36006KT P6SM SCT035
     FM261500 34009G14KT P6SM SKC
     FM270000 29004KT P6SM SKC=

USA.gov is the U.S. government's official web portal to all federal, state and local government web resources and services.